CheckWX is a tool to help pilots better visualize weather data.  It is not intended as a substitute for an official pre-flight weather briefing.

01:54:25 UTC

SBPL TAF
Senador Nilo Coelho Airport
Petrolina, Brazil
TAF SBPL 182200Z 1900/1924 10007KT 9999 CAVOK TN24/1906Z TX35/1917Z BECMG 1910/1912 15008KT SCT030 BECMG 1916/1918 1007KT SCT030 FEW040TCURMK PEQ

Mar-19@
00:00 UTC

Mar-19 @ 00:00 UTC

Mar-19@
10:00 UTC

Mar-19 @ 10:00 UTC

TAF SBPL 182200Z 1900/1924 10007KT 9999 CAVOK TN24/1906Z TX35/1917Z
Wind
  • 100° at 7 KTS
Cloud Levels
  • No significant clouds

Mar-19@
10:00 UTC

Mar-19 @ 10:00 UTC

Mar-19@
16:00 UTC

Mar-19 @ 16:00 UTC

BECMG 1910/1912 15008KT SCT030

Becoming

Becoming Conditions expected by Tue, Mar 19, 2019 @ 12:00 UTC

Wind
  • 150° at 8 KTS
Cloud Levels
  • Scattered at 3,000' AGL

Mar-19@
16:00 UTC

Mar-19 @ 16:00 UTC

Mar-20@
00:00 UTC

Mar-20 @ 00:00 UTC

BECMG 1916/1918 1007KT SCT030 FEW040TCURMK PEQ

Becoming

Becoming Conditions expected by Tue, Mar 19, 2019 @ 18:00 UTC

Wind
  • 150° at 8 KTS
Conditions
Ice pellets
Cloud Levels
  • Scattered at 3,000' AGL